sensor_id;sensor_type;location;lat;lon;timestamp;pressure;altitude;pressure_sealevel;temperature;humidity
6024;BME280;3040;42.654;23.296;2023-05-10T00:01:16;94473.97;;;10.71;100.00
6024;BME280;3040;42.654;23.296;2023-05-10T00:03:43;94459.72;;;10.55;100.00
6024;BME280;3040;42.654;23.296;2023-05-10T00:06:10;94455.75;;;10.49;100.00
6024;BME280;3040;42.654;23.296;2023-05-10T00:08:38;94257.34;;;9.26;100.00
6024;BME280;3040;42.654;23.296;2023-05-10T00:11:05;94444.44;;;10.52;100.00
6024;BME280;3040;42.654;23.296;2023-05-10T00:13:32;94453.09;;;10.61;100.00
6024;BME280;3040;42.654;23.296;2023-05-10T00:15:59;94454.63;;;10.38;100.00
6024;BME280;3040;42.654;23.296;2023-05-10T00:18:26;94455.53;;;10.42;100.00
6024;BME280;3040;42.654;23.296;2023-05-10T00:20:53;94426.66;;;10.19;100.00
6024;BME280;3040;42.654;23.296;2023-05-10T00:23:21;94440.34;;;10.09;100.00
6024;BME280;3040;42.654;23.296;2023-05-10T00:25:49;94454.38;;;10.18;100.00
6024;BME280;3040;42.654;23.296;2023-05-10T00:28:16;94450.59;;;10.19;100.00
6024;BME280;3040;42.654;23.296;2023-05-10T00:30:42;94451.88;;;10.13;100.00
6024;BME280;3040;42.654;23.296;2023-05-10T00:33:09;94366.84;;;9.35;100.00
6024;BME280;3040;42.654;23.296;2023-05-10T00:35:37;94442.09;;;9.93;100.00
6024;BME280;3040;42.654;23.296;2023-05-10T00:38:04;93745.56;;;5.19;100.00
6024;BME280;3040;42.654;23.296;2023-05-10T00:40:30;94430.53;;;9.89;100.00
6024;BME280;3040;42.654;23.296;2023-05-10T00:42:59;94434.91;;;9.94;100.00
6024;BME280;3040;42.654;23.296;2023-05-10T00:45:26;94440.56;;;10.04;100.00
6024;BME280;3040;42.654;23.296;2023-05-10T00:47:53;94275.53;;;8.83;100.00
6024;BME280;3040;42.654;23.296;2023-05-10T00:50:21;94407.22;;;9.62;100.00
6024;BME280;3040;42.654;23.296;2023-05-10T00:52:48;94428.97;;;9.76;100.00
6024;BME280;3040;42.654;23.296;2023-05-10T00:55:15;94439.97;;;9.87;100.00
6024;BME280;3040;42.654;23.296;2023-05-10T00:57:42;94428.97;;;9.76;100.00
6024;BME280;3040;42.654;23.296;2023-05-10T01:00:12;94430.28;;;9.70;100.00
6024;BME280;3040;42.654;23.296;2023-05-10T01:02:43;94401.41;;;9.48;100.00
6024;BME280;3040;42.654;23.296;2023-05-10T01:05:10;94419.66;;;9.70;100.00
6024;BME280;3040;42.654;23.296;2023-05-10T01:07:38;94426.50;;;9.71;100.00
6024;BME280;3040;42.654;23.296;2023-05-10T01:10:06;94344.88;;;9.14;100.00
6024;BME280;3040;42.654;23.296;2023-05-10T01:12:34;94417.53;;;9.63;100.00
6024;BME280;3040;42.654;23.296;2023-05-10T01:15:03;94419.59;;;9.58;100.00
6024;BME280;3040;42.654;23.296;2023-05-10T01:17:32;94206.44;;;8.17;100.00
6024;BME280;3040;42.654;23.296;2023-05-10T01:20:00;94410.06;;;9.57;100.00
6024;BME280;3040;42.654;23.296;2023-05-10T01:22:44;94413.41;;;9.66;100.00
6024;BME280;3040;42.654;23.296;2023-05-10T01:25:31;94396.22;;;9.51;100.00
6024;BME280;3040;42.654;23.296;2023-05-10T01:28:16;94410.72;;;9.54;100.00
6024;BME280;3040;42.654;23.296;2023-05-10T01:31:08;94398.31;;;9.46;100.00
6024;BME280;3040;42.654;23.296;2023-05-10T01:33:42;94403.28;;;9.47;100.00
6024;BME280;3040;42.654;23.296;2023-05-10T01:36:19;94377.41;;;9.23;100.00
6024;BME280;3040;42.654;23.296;2023-05-10T01:38:55;94386.50;;;9.34;100.00
6024;BME280;3040;42.654;23.296;2023-05-10T01:41:28;94379.84;;;9.28;100.00
6024;BME280;3040;42.654;23.296;2023-05-10T01:44:11;94382.75;;;9.35;100.00
6024;BME280;3040;42.654;23.296;2023-05-10T01:46:44;94381.47;;;9.42;100.00
6024;BME280;3040;42.654;23.296;2023-05-10T01:49:22;94375.41;;;9.20;100.00
6024;BME280;3040;42.654;23.296;2023-05-10T01:51:52;94404.00;;;9.35;100.00
6024;BME280;3040;42.654;23.296;2023-05-10T01:54:21;94381.69;;;9.16;100.00
6024;BME280;3040;42.654;23.296;2023-05-10T01:56:55;94386.03;;;9.20;100.00
6024;BME280;3040;42.654;23.296;2023-05-10T01:59:27;94379.41;;;9.26;100.00
6024;BME280;3040;42.654;23.296;2023-05-10T02:01:57;94380.06;;;9.23;100.00
6024;BME280;3040;42.654;23.296;2023-05-10T02:04:27;94371.41;;;9.14;100.00
6024;BME280;3040;42.654;23.296;2023-05-10T02:06:55;94375.41;;;9.20;100.00
6024;BME280;3040;42.654;23.296;2023-05-10T02:09:23;94289.63;;;8.75;100.00
6024;BME280;3040;42.654;23.296;2023-05-10T02:11:52;94380.72;;;9.20;100.00
6024;BME280;3040;42.654;23.296;2023-05-10T02:14:20;94379.84;;;9.28;100.00
6024;BME280;3040;42.654;23.296;2023-05-10T02:16:50;94339.56;;;9.14;100.00
6024;BME280;3040;42.654;23.296;2023-05-10T02:19:19;94375.00;;;9.30;100.00
6024;BME280;3040;42.654;23.296;2023-05-10T02:21:50;94365.94;;;9.11;98.52
6024;BME280;3040;42.654;23.296;2023-05-10T02:24:17;94362.50;;;9.10;100.00
6024;BME280;3040;42.654;23.296;2023-05-10T02:26:47;94364.41;;;8.89;99.00
6024;BME280;3040;42.654;23.296;2023-05-10T02:29:16;94369.16;;;8.75;95.87
6024;BME280;3040;42.654;23.296;2023-05-10T02:31:45;94360.63;;;8.69;96.09
6024;BME280;3040;42.654;23.296;2023-05-10T02:34:13;94370.53;;;8.51;95.86
6024;BME280;3040;42.654;23.296;2023-05-10T02:36:41;94322.34;;;8.20;94.95
6024;BME280;3040;42.654;23.296;2023-05-10T02:39:10;94371.69;;;8.42;94.94
6024;BME280;3040;42.654;23.296;2023-05-10T02:41:40;94380.75;;;8.41;95.52
6024;BME280;3040;42.654;23.296;2023-05-10T02:44:08;94383.56;;;8.27;95.11
6024;BME280;3040;42.654;23.296;2023-05-10T02:46:36;94368.75;;;8.26;95.09
6024;BME280;3040;42.654;23.296;2023-05-10T02:49:03;94374.53;;;8.28;95.55
6024;BME280;3040;42.654;23.296;2023-05-10T02:51:32;94366.00;;;8.31;96.56
6024;BME280;3040;42.654;23.296;2023-05-10T02:54:06;94369.06;;;8.33;97.06
6024;BME280;3040;42.654;23.296;2023-05-10T02:56:40;94330.84;;;8.05;96.84
6024;BME280;3040;42.654;23.296;2023-05-10T02:59:09;94364.44;;;8.30;98.17
6024;BME280;3040;42.654;23.296;2023-05-10T03:01:36;94361.16;;;8.25;96.79
6024;BME280;3040;42.654;23.296;2023-05-10T03:04:03;94371.59;;;8.21;97.15
6024;BME280;3040;42.654;23.296;2023-05-10T03:06:30;94370.69;;;8.17;96.23
6024;BME280;3040;42.654;23.296;2023-05-10T03:08:57;94380.47;;;8.25;96.54
6024;BME280;3040;42.654;23.296;2023-05-10T03:11:35;94363.78;;;8.33;96.97
6024;BME280;3040;42.654;23.296;2023-05-10T03:14:21;94361.16;;;8.25;96.44
6024;BME280;3040;42.654;23.296;2023-05-10T03:16:55;94359.13;;;8.30;95.90
6024;BME280;3040;42.654;23.296;2023-05-10T03:19:27;94359.44;;;8.20;95.76
6024;BME280;3040;42.654;23.296;2023-05-10T03:21:59;94351.84;;;8.10;96.62
6024;BME280;3040;42.654;23.296;2023-05-10T03:24:32;94329.00;;;7.97;95.86
6024;BME280;3040;42.654;23.296;2023-05-10T03:27:01;94367.84;;;8.22;95.20
6024;BME280;3040;42.654;23.296;2023-05-10T03:29:31;94378.94;;;8.15;96.57
6024;BME280;3040;42.654;23.296;2023-05-10T03:31:58;94368.00;;;8.26;95.78
6024;BME280;3040;42.654;23.296;2023-05-10T03:34:25;94327.66;;;7.82;96.32
6024;BME280;3040;42.654;23.296;2023-05-10T03:36:52;94386.56;;;8.17;95.21
6024;BME280;3040;42.654;23.296;2023-05-10T03:39:19;94379.09;;;8.19;94.94
6024;BME280;3040;42.654;23.296;2023-05-10T03:41:46;93987.78;;;5.64;94.30
6024;BME280;3040;42.654;23.296;2023-05-10T03:44:13;94370.41;;;8.10;93.78
6024;BME280;3040;42.654;23.296;2023-05-10T03:46:41;94387.38;;;8.09;93.82
6024;BME280;3040;42.654;23.296;2023-05-10T03:49:08;94136.97;;;6.39;95.27
6024;BME280;3040;42.654;23.296;2023-05-10T03:51:35;94396.75;;;8.06;94.61
6024;BME280;3040;42.654;23.296;2023-05-10T03:54:02;94257.97;;;7.14;94.45
6024;BME280;3040;42.654;23.296;2023-05-10T03:56:29;94357.09;;;7.81;93.36
6024;BME280;3040;42.654;23.296;2023-05-10T03:58:56;94259.72;;;6.84;93.80
6024;BME280;3040;42.654;23.296;2023-05-10T04:01:23;94402.53;;;7.91;93.27
6024;BME280;3040;42.654;23.296;2023-05-10T04:03:51;94408.00;;;7.86;91.93
6024;BME280;3040;42.654;23.296;2023-05-10T04:06:18;94382.97;;;7.66;92.43
6024;BME280;3040;42.654;23.296;2023-05-10T04:08:44;94405.97;;;7.92;92.56
6024;BME280;3040;42.654;23.296;2023-05-10T04:11:11;94421.25;;;7.95;91.85
6024;BME280;3040;42.654;23.296;2023-05-10T04:13:39;94268.84;;;7.13;92.25
6024;BME280;3040;42.654;23.296;2023-05-10T04:16:06;94419.34;;;8.04;92.33
6024;BME280;3040;42.654;23.296;2023-05-10T04:18:33;94414.38;;;7.94;91.35
6024;BME280;3040;42.654;23.296;2023-05-10T04:21:01;94415.78;;;7.91;93.56
6024;BME280;3040;42.654;23.296;2023-05-10T04:23:28;94423.06;;;8.03;93.48
6024;BME280;3040;42.654;23.296;2023-05-10T04:25:59;94415.59;;;8.05;93.06
6024;BME280;3040;42.654;23.296;2023-05-10T04:28:27;94422.78;;;7.96;91.39
6024;BME280;3040;42.654;23.296;2023-05-10T04:31:00;94421.81;;;8.09;92.74
6024;BME280;3040;42.654;23.296;2023-05-10T04:33:27;94422.16;;;7.99;92.65
6024;BME280;3040;42.654;23.296;2023-05-10T04:35:54;94418.97;;;8.14;93.18
6024;BME280;3040;42.654;23.296;2023-05-10T04:38:22;94418.72;;;8.07;93.51
6024;BME280;3040;42.654;23.296;2023-05-10T04:40:49;94385.88;;;7.91;92.92
6024;BME280;3040;42.654;23.296;2023-05-10T04:43:16;94327.44;;;7.58;91.74
6024;BME280;3040;42.654;23.296;2023-05-10T04:45:43;94428.47;;;8.24;92.75
6024;BME280;3040;42.654;23.296;2023-05-10T04:48:10;94436.25;;;8.29;91.03
6024;BME280;3040;42.654;23.296;2023-05-10T04:50:37;94433.13;;;8.27;91.34
6024;BME280;3040;42.654;23.296;2023-05-10T04:53:03;94427.47;;;8.45;91.04
6024;BME280;3040;42.654;23.296;2023-05-10T04:55:32;94423.44;;;8.48;90.36
6024;BME280;3040;42.654;23.296;2023-05-10T04:57:59;94425.13;;;8.52;90.84
6024;BME280;3040;42.654;23.296;2023-05-10T05:00:26;94404.13;;;8.39;91.75
6024;BME280;3040;42.654;23.296;2023-05-10T05:02:52;94421.19;;;8.58;91.82
6024;BME280;3040;42.654;23.296;2023-05-10T05:05:19;94413.13;;;8.55;90.02
6024;BME280;3040;42.654;23.296;2023-05-10T05:07:46;94430.69;;;8.60;89.65
6024;BME280;3040;42.654;23.296;2023-05-10T05:10:13;94428.16;;;8.72;89.40
6024;BME280;3040;42.654;23.296;2023-05-10T05:12:42;94410.41;;;8.64;89.35
6024;BME280;3040;42.654;23.296;2023-05-10T05:15:09;94437.19;;;8.71;89.08
6024;BME280;3040;42.654;23.296;2023-05-10T05:17:36;94451.81;;;8.77;89.76
6024;BME280;3040;42.654;23.296;2023-05-10T05:20:04;94438.09;;;8.75;90.33
6024;BME280;3040;42.654;23.296;2023-05-10T05:22:31;94436.03;;;8.80;90.40
6024;BME280;3040;42.654;23.296;2023-05-10T05:24:58;94407.13;;;8.67;90.21
6024;BME280;3040;42.654;23.296;2023-05-10T05:27:24;94438.28;;;8.99;89.79
6024;BME280;3040;42.654;23.296;2023-05-10T05:29:54;94389.75;;;8.78;90.63
6024;BME280;3040;42.654;23.296;2023-05-10T05:32:22;94445.88;;;9.09;91.18
6024;BME280;3040;42.654;23.296;2023-05-10T05:34:49;94452.69;;;9.19;94.33
6024;BME280;3040;42.654;23.296;2023-05-10T05:37:16;94448.16;;;9.19;91.37
6024;BME280;3040;42.654;23.296;2023-05-10T05:39:43;94450.06;;;9.10;91.27
6024;BME280;3040;42.654;23.296;2023-05-10T05:42:11;94449.38;;;8.92;89.70
6024;BME280;3040;42.654;23.296;2023-05-10T05:44:38;94266.44;;;7.84;91.47
6024;BME280;3040;42.654;23.296;2023-05-10T05:47:06;94459.16;;;9.09;91.73
6024;BME280;3040;42.654;23.296;2023-05-10T05:49:33;94480.22;;;9.06;90.96
6024;BME280;3040;42.654;23.296;2023-05-10T05:52:01;94430.97;;;8.96;91.16
6024;BME280;3040;42.654;23.296;2023-05-10T05:54:29;94467.44;;;8.99;91.87
6024;BME280;3040;42.654;23.296;2023-05-10T05:56:56;94471.47;;;9.05;91.77
6024;BME280;3040;42.654;23.296;2023-05-10T05:59:23;94462.34;;;8.94;91.11
6024;BME280;3040;42.654;23.296;2023-05-10T06:01:50;94293.84;;;7.88;91.17
6024;BME280;3040;42.654;23.296;2023-05-10T06:04:19;94463.59;;;8.96;91.29
6024;BME280;3040;42.654;23.296;2023-05-10T06:06:46;94468.56;;;8.98;92.06
6024;BME280;3040;42.654;23.296;2023-05-10T06:09:12;94479.25;;;8.81;91.03
6024;BME280;3040;42.654;23.296;2023-05-10T06:11:39;94372.81;;;8.32;92.15
6024;BME280;3040;42.654;23.296;2023-05-10T06:14:06;94440.34;;;8.93;92.70
6024;BME280;3040;42.654;23.296;2023-05-10T06:16:34;94499.03;;;9.21;92.11
6024;BME280;3040;42.654;23.296;2023-05-10T06:19:01;94490.09;;;9.26;90.92
6024;BME280;3040;42.654;23.296;2023-05-10T06:21:29;94474.56;;;9.36;92.12
6024;BME280;3040;42.654;23.296;2023-05-10T06:23:56;94484.09;;;9.37;89.90
6024;BME280;3040;42.654;23.296;2023-05-10T06:26:23;94237.31;;;7.84;90.74
6024;BME280;3040;42.654;23.296;2023-05-10T06:28:50;94401.03;;;8.95;89.55
6024;BME280;3040;42.654;23.296;2023-05-10T06:31:17;94492.16;;;9.41;89.16
6024;BME280;3040;42.654;23.296;2023-05-10T06:33:44;94470.63;;;9.43;90.22
6024;BME280;3040;42.654;23.296;2023-05-10T06:36:11;94445.69;;;9.35;90.12
6024;BME280;3040;42.654;23.296;2023-05-10T06:38:40;94496.06;;;9.85;91.27
6024;BME280;3040;42.654;23.296;2023-05-10T06:41:06;94460.00;;;9.63;90.97
6024;BME280;3040;42.654;23.296;2023-05-10T06:43:33;94480.69;;;9.91;90.09
6024;BME280;3040;42.654;23.296;2023-05-10T06:46:00;94492.63;;;10.05;89.79
6024;BME280;3040;42.654;23.296;2023-05-10T06:48:27;94495.00;;;9.98;88.24
6024;BME280;3040;42.654;23.296;2023-05-10T06:50:54;94458.75;;;9.61;88.06
6024;BME280;3040;42.654;23.296;2023-05-10T06:53:20;94492.88;;;9.71;86.91
6024;BME280;3040;42.654;23.296;2023-05-10T06:55:50;94492.13;;;9.70;85.85
6024;BME280;3040;42.654;23.296;2023-05-10T06:58:17;94512.06;;;9.56;86.35
6024;BME280;3040;42.654;23.296;2023-05-10T07:00:44;94469.78;;;9.51;88.75
6024;BME280;3040;42.654;23.296;2023-05-10T07:03:12;94352.81;;;8.73;87.21
6024;BME280;3040;42.654;23.296;2023-05-10T07:05:39;94504.72;;;9.53;86.46
6024;BME280;3040;42.654;23.296;2023-05-10T07:08:05;94504.72;;;9.53;86.15
6024;BME280;3040;42.654;23.296;2023-05-10T07:10:33;94496.84;;;9.65;86.22
6024;BME280;3040;42.654;23.296;2023-05-10T07:13:01;94505.78;;;9.39;86.61
6024;BME280;3040;42.654;23.296;2023-05-10T07:15:28;94500.47;;;9.39;87.04
6024;BME280;3040;42.654;23.296;2023-05-10T07:17:55;94488.03;;;9.31;86.90
6024;BME280;3040;42.654;23.296;2023-05-10T07:20:22;94445.13;;;9.00;87.95
6024;BME280;3040;42.654;23.296;2023-05-10T07:22:48;94513.81;;;9.52;87.24
6024;BME280;3040;42.654;23.296;2023-05-10T07:25:15;94506.28;;;9.54;87.15
6024;BME280;3040;42.654;23.296;2023-05-10T07:27:42;94501.75;;;9.33;86.59
6024;BME280;3040;42.654;23.296;2023-05-10T07:30:12;94501.19;;;9.28;87.28
6024;BME280;3040;42.654;23.296;2023-05-10T07:32:39;94495.91;;;9.19;87.20
6024;BME280;3040;42.654;23.296;2023-05-10T07:35:08;94495.72;;;9.24;85.96
6024;BME280;3040;42.654;23.296;2023-05-10T07:37:35;94518.88;;;9.45;87.05
6024;BME280;3040;42.654;23.296;2023-05-10T07:40:02;94512.84;;;9.56;87.22
6024;BME280;3040;42.654;23.296;2023-05-10T07:42:29;94514.22;;;9.62;86.77
6024;BME280;3040;42.654;23.296;2023-05-10T07:44:55;94525.09;;;9.69;86.55
6024;BME280;3040;42.654;23.296;2023-05-10T07:47:24;94523.53;;;9.68;85.14
6024;BME280;3040;42.654;23.296;2023-05-10T07:49:51;94515.34;;;9.53;85.69
6024;BME280;3040;42.654;23.296;2023-05-10T07:52:18;94522.09;;;9.71;86.84
6024;BME280;3040;42.654;23.296;2023-05-10T07:54:45;94466.94;;;9.56;85.60
6024;BME280;3040;42.654;23.296;2023-05-10T07:57:11;94511.25;;;9.64;84.55
6024;BME280;3040;42.654;23.296;2023-05-10T07:59:40;94523.03;;;9.75;85.04
6024;BME280;3040;42.654;23.296;2023-05-10T08:02:07;94533.25;;;9.64;84.87
6024;BME280;3040;42.654;23.296;2023-05-10T08:04:35;94518.28;;;9.60;85.60
6024;BME280;3040;42.654;23.296;2023-05-10T08:07:02;94521.88;;;9.64;85.38
6024;BME280;3040;42.654;23.296;2023-05-10T08:09:29;94524.69;;;9.79;85.76
6024;BME280;3040;42.654;23.296;2023-05-10T08:11:56;94538.97;;;9.75;85.73
6024;BME280;3040;42.654;23.296;2023-05-10T08:14:24;94529.56;;;9.98;85.19
6024;BME280;3040;42.654;23.296;2023-05-10T08:16:51;94342.66;;;8.75;84.30
6024;BME280;3040;42.654;23.296;2023-05-10T08:19:18;94516.63;;;10.09;83.70
6024;BME280;3040;42.654;23.296;2023-05-10T08:21:48;94524.94;;;10.07;83.66
6024;BME280;3040;42.654;23.296;2023-05-10T08:24:15;94511.22;;;9.85;82.02
6024;BME280;3040;42.654;23.296;2023-05-10T08:26:42;94514.22;;;10.16;84.13
6024;BME280;3040;42.654;23.296;2023-05-10T08:29:09;94529.00;;;10.26;82.36
6024;BME280;3040;42.654;23.296;2023-05-10T08:31:36;94346.59;;;8.69;83.76
6024;BME280;3040;42.654;23.296;2023-05-10T08:34:03;94536.41;;;10.20;82.37
6024;BME280;3040;42.654;23.296;2023-05-10T08:36:30;94535.00;;;10.23;83.33
6024;BME280;3040;42.654;23.296;2023-05-10T08:38:58;94522.72;;;10.09;84.76
6024;BME280;3040;42.654;23.296;2023-05-10T08:41:26;94528.03;;;10.09;84.89
6024;BME280;3040;42.654;23.296;2023-05-10T08:43:54;94517.09;;;10.11;85.71
6024;BME280;3040;42.654;23.296;2023-05-10T08:46:21;94328.94;;;8.73;84.85
6024;BME280;3040;42.654;23.296;2023-05-10T08:48:50;94536.22;;;10.04;86.62
6024;BME280;3040;42.654;23.296;2023-05-10T08:51:19;94530.69;;;10.09;87.96
6024;BME280;3040;42.654;23.296;2023-05-10T08:53:47;94523.06;;;10.29;89.09
6024;BME280;3040;42.654;23.296;2023-05-10T08:56:15;94525.75;;;10.41;87.21
6024;BME280;3040;42.654;23.296;2023-05-10T08:58:43;94530.09;;;10.45;87.19
6024;BME280;3040;42.654;23.296;2023-05-10T09:01:11;94514.22;;;10.37;88.50
6024;BME280;3040;42.654;23.296;2023-05-10T09:03:39;94512.88;;;10.31;88.04
6024;BME280;3040;42.654;23.296;2023-05-10T09:06:06;94527.66;;;10.19;87.21
6024;BME280;3040;42.654;23.296;2023-05-10T09:08:34;94524.69;;;10.00;87.94
6024;BME280;3040;42.654;23.296;2023-05-10T09:11:02;94524.81;;;10.25;89.59
6024;BME280;3040;42.654;23.296;2023-05-10T09:13:32;94536.56;;;10.24;89.17
6024;BME280;3040;42.654;23.296;2023-05-10T09:16:01;94520.16;;;10.22;88.83
6024;BME280;3040;42.654;23.296;2023-05-10T09:18:29;94528.78;;;10.18;89.09
6024;BME280;3040;42.654;23.296;2023-05-10T09:20:56;94525.34;;;10.18;88.80
6024;BME280;3040;42.654;23.296;2023-05-10T09:23:23;94355.63;;;8.97;87.37
6024;BME280;3040;42.654;23.296;2023-05-10T09:26:02;94506.59;;;10.14;88.33
6024;BME280;3040;42.654;23.296;2023-05-10T09:28:33;94513.94;;;10.17;88.82
6024;BME280;3040;42.654;23.296;2023-05-10T09:30:59;94499.56;;;10.18;88.13
6024;BME280;3040;42.654;23.296;2023-05-10T09:33:26;94521.28;;;10.33;86.80
6024;BME280;3040;42.654;23.296;2023-05-10T09:35:53;94520.50;;;10.32;85.64
6024;BME280;3040;42.654;23.296;2023-05-10T09:38:20;94498.25;;;10.25;84.98
6024;BME280;3040;42.654;23.296;2023-05-10T09:40:52;94518.56;;;10.41;86.98
6024;BME280;3040;42.654;23.296;2023-05-10T09:43:21;94526.78;;;10.48;87.13
6024;BME280;3040;42.654;23.296;2023-05-10T09:45:49;94528.00;;;10.51;85.91
6024;BME280;3040;42.654;23.296;2023-05-10T09:48:16;94525.28;;;10.39;84.97
6024;BME280;3040;42.654;23.296;2023-05-10T09:50:43;94520.34;;;10.49;85.69
6024;BME280;3040;42.654;23.296;2023-05-10T09:53:14;94343.66;;;9.45;85.95
6024;BME280;3040;42.654;23.296;2023-05-10T09:55:42;94397.03;;;9.97;85.03
6024;BME280;3040;42.654;23.296;2023-05-10T09:58:10;94516.28;;;10.76;84.19
6024;BME280;3040;42.654;23.296;2023-05-10T10:00:39;94513.41;;;10.81;84.27
6024;BME280;3040;42.654;23.296;2023-05-10T10:03:12;94509.84;;;10.65;81.89
6024;BME280;3040;42.654;23.296;2023-05-10T10:05:40;94517.06;;;10.77;82.62
6024;BME280;3040;42.654;23.296;2023-05-10T10:08:08;94495.09;;;10.55;83.02
6024;BME280;3040;42.654;23.296;2023-05-10T10:10:35;94500.13;;;10.81;83.51
6024;BME280;3040;42.654;23.296;2023-05-10T10:13:02;94501.91;;;11.01;83.47
6024;BME280;3040;42.654;23.296;2023-05-10T10:15:30;94469.06;;;10.97;82.81
6024;BME280;3040;42.654;23.296;2023-05-10T10:17:57;94494.78;;;11.30;80.78
6024;BME280;3040;42.654;23.296;2023-05-10T10:20:26;94488.38;;;11.19;81.25
6024;BME280;3040;42.654;23.296;2023-05-10T10:22:53;94489.91;;;11.32;80.17
6024;BME280;3040;42.654;23.296;2023-05-10T10:25:21;94457.63;;;11.09;81.37
6024;BME280;3040;42.654;23.296;2023-05-10T10:27:59;94495.66;;;11.22;80.45
6024;BME280;3040;42.654;23.296;2023-05-10T10:30:36;94493.69;;;11.31;80.91
6024;BME280;3040;42.654;23.296;2023-05-10T10:33:33;94502.75;;;11.42;79.35
6024;BME280;3040;42.654;23.296;2023-05-10T10:36:07;94501.19;;;11.53;81.27
6024;BME280;3040;42.654;23.296;2023-05-10T10:38:38;94493.19;;;11.53;79.10
6024;BME280;3040;42.654;23.296;2023-05-10T10:41:29;94509.97;;;11.54;79.31
6024;BME280;3040;42.654;23.296;2023-05-10T10:44:25;94514.53;;;11.29;80.22
6024;BME280;3040;42.654;23.296;2023-05-10T10:47:00;93831.94;;;6.74;79.00
6024;BME280;3040;42.654;23.296;2023-05-10T10:49:29;94484.59;;;10.95;80.01
6024;BME280;3040;42.654;23.296;2023-05-10T10:52:21;94453.88;;;10.74;81.40
6024;BME280;3040;42.654;23.296;2023-05-10T10:54:53;94502.56;;;11.11;81.16
6024;BME280;3040;42.654;23.296;2023-05-10T10:57:23;94472.50;;;10.98;80.94
6024;BME280;3040;42.654;23.296;2023-05-10T10:59:54;94499.66;;;11.28;79.95
6024;BME280;3040;42.654;23.296;2023-05-10T11:02:45;94501.91;;;11.14;79.28
6024;BME280;3040;42.654;23.296;2023-05-10T11:08:14;94502.56;;;11.11;80.38
6024;BME280;3040;42.654;23.296;2023-05-10T11:10:54;94486.16;;;10.96;79.46
6024;BME280;3040;42.654;23.296;2023-05-10T11:13:29;94504.56;;;11.14;80.32
6024;BME280;3040;42.654;23.296;2023-05-10T11:15:56;94487.50;;;11.15;81.35
6024;BME280;3040;42.654;23.296;2023-05-10T11:18:25;94493.38;;;11.08;81.75
6024;BME280;3040;42.654;23.296;2023-05-10T11:20:56;94503.66;;;11.22;80.40
6024;BME280;3040;42.654;23.296;2023-05-10T11:23:29;94499.56;;;11.12;79.38
6024;BME280;3040;42.654;23.296;2023-05-10T11:25:56;94508.09;;;11.18;79.97
6024;BME280;3040;42.654;23.296;2023-05-10T11:28:23;94497.56;;;11.21;80.39
6024;BME280;3040;42.654;23.296;2023-05-10T11:30:52;94496.34;;;11.31;80.20
6024;BME280;3040;42.654;23.296;2023-05-10T11:33:19;94499.66;;;11.40;80.11
6024;BME280;3040;42.654;23.296;2023-05-10T11:35:46;94415.44;;;10.71;80.50
6024;BME280;3040;42.654;23.296;2023-05-10T11:38:14;94504.97;;;11.28;80.26
6024;BME280;3040;42.654;23.296;2023-05-10T11:40:42;94500.69;;;11.11;80.99
6024;BME280;3040;42.654;23.296;2023-05-10T11:43:10;94478.38;;;10.91;80.88
6024;BME280;3040;42.654;23.296;2023-05-10T11:45:41;94485.94;;;10.89;80.51
6024;BME280;3040;42.654;23.296;2023-05-10T11:48:08;94512.31;;;11.07;81.71
6024;BME280;3040;42.654;23.296;2023-05-10T11:50:35;94504.78;;;10.96;81.99
6024;BME280;3040;42.654;23.296;2023-05-10T11:53:02;94486.16;;;10.96;80.84
6024;BME280;3040;42.654;23.296;2023-05-10T11:55:28;94495.47;;;11.02;81.66
6024;BME280;3040;42.654;23.296;2023-05-10T11:58:01;94447.59;;;10.78;81.76
6024;BME280;3040;42.654;23.296;2023-05-10T12:00:29;94499.47;;;11.09;82.51
6024;BME280;3040;42.654;23.296;2023-05-10T12:02:57;94474.75;;;10.96;82.87
6024;BME280;3040;42.654;23.296;2023-05-10T12:05:24;94494.78;;;11.18;83.10
6024;BME280;3040;42.654;23.296;2023-05-10T12:07:51;94411.88;;;10.55;81.62
6024;BME280;3040;42.654;23.296;2023-05-10T12:10:25;94483.91;;;11.23;81.98
6024;BME280;3040;42.654;23.296;2023-05-10T12:12:52;94471.19;;;11.04;80.77
6024;BME280;3040;42.654;23.296;2023-05-10T12:15:22;94487.50;;;11.15;81.65
6024;BME280;3040;42.654;23.296;2023-05-10T12:17:50;94488.59;;;11.26;82.02
6024;BME280;3040;42.654;23.296;2023-05-10T12:20:22;94482.72;;;11.08;82.63
6024;BME280;3040;42.654;23.296;2023-05-10T12:22:52;94487.50;;;11.15;81.98
6024;BME280;3040;42.654;23.296;2023-05-10T12:25:21;94484.16;;;11.18;80.86
6024;BME280;3040;42.654;23.296;2023-05-10T12:27:51;94483.28;;;11.14;81.58
6024;BME280;3040;42.654;23.296;2023-05-10T12:30:24;94454.22;;;10.72;82.09
6024;BME280;3040;42.654;23.296;2023-05-10T12:32:51;94463.97;;;10.92;82.83
6024;BME280;3040;42.654;23.296;2023-05-10T12:35:19;94284.66;;;9.72;82.53
6024;BME280;3040;42.654;23.296;2023-05-10T12:37:47;94480.84;;;10.96;82.65
6024;BME280;3040;42.654;23.296;2023-05-10T12:40:14;94468.41;;;10.88;83.00
6024;BME280;3040;42.654;23.296;2023-05-10T12:42:41;94413.00;;;10.42;83.09
6024;BME280;3040;42.654;23.296;2023-05-10T12:45:10;94468.09;;;10.90;84.22
6024;BME280;3040;42.654;23.296;2023-05-10T12:47:39;94326.06;;;9.85;83.73
6024;BME280;3040;42.654;23.296;2023-05-10T12:50:06;94449.78;;;10.52;83.54
6024;BME280;3040;42.654;23.296;2023-05-10T12:52:33;94452.00;;;10.74;83.74
6024;BME280;3040;42.654;23.296;2023-05-10T12:55:00;94260.28;;;9.46;82.70
6024;BME280;3040;42.654;23.296;2023-05-10T12:57:28;94469.66;;;10.79;84.12
6024;BME280;3040;42.654;23.296;2023-05-10T12:59:56;94421.38;;;10.32;82.96
6024;BME280;3040;42.654;23.296;2023-05-10T13:02:22;94463.53;;;10.66;83.94
6024;BME280;3040;42.654;23.296;2023-05-10T13:04:52;94462.97;;;10.48;84.98
6024;BME280;3040;42.654;23.296;2023-05-10T13:07:19;94446.78;;;10.53;84.65
6024;BME280;3040;42.654;23.296;2023-05-10T13:09:46;94442.00;;;10.47;85.02
6024;BME280;3040;42.654;23.296;2023-05-10T13:12:14;94445.34;;;10.56;85.34
6024;BME280;3040;42.654;23.296;2023-05-10T13:14:41;94404.47;;;10.03;84.01
6024;BME280;3040;42.654;23.296;2023-05-10T13:17:08;94291.63;;;9.31;84.96
6024;BME280;3040;42.654;23.296;2023-05-10T13:19:35;94303.63;;;9.50;85.68
6024;BME280;3040;42.654;23.296;2023-05-10T13:22:03;94438.03;;;10.65;84.98
6024;BME280;3040;42.654;23.296;2023-05-10T13:24:30;94437.13;;;10.61;83.32
6024;BME280;3040;42.654;23.296;2023-05-10T13:26:58;94433.38;;;10.62;84.40